Terminal Aerodrome Forecast
Issued by NWS Quad Cities IA IL

Home | Current Version | Previous Version | Text Only | Print | Product List | Glossary On
Versions: 1 2 3 4 5 6 7 8 9 10 11 12 13 14 15 16 17 18 19 20 21 22 23
467
FTUS43 KDVN 041727
TAFDBQ
TAF
KDBQ 041727Z 0418/0518 18010KT P6SM VCSH BKN100
     FM042200 25007KT P6SM SCT090
     FM050100 28007KT P6SM VCSH BKN070
     FM050700 32005KT P6SM SCT070
     FM051600 27004KT P6SM BKN080=

USA.gov is the U.S. government's official web portal to all federal, state and local government web resources and services.